sensor_id;sensor_type;location;lat;lon;timestamp;temperature;humidity
7196;DHT22;3639;51.308;5.624;2024-03-23T00:54:08;7.00;99.90
7196;DHT22;3639;51.308;5.624;2024-03-23T00:56:34;7.00;99.90
7196;DHT22;3639;51.308;5.624;2024-03-23T00:58:59;7.10;99.90
7196;DHT22;3639;51.308;5.624;2024-03-23T01:01:25;7.00;99.90
7196;DHT22;3639;51.308;5.624;2024-03-23T01:03:50;7.00;99.90
7196;DHT22;3639;51.308;5.624;2024-03-23T01:06:16;7.00;99.90
7196;DHT22;3639;51.308;5.624;2024-03-23T01:08:41;7.00;99.90
7196;DHT22;3639;51.308;5.624;2024-03-23T01:11:07;7.10;99.90
7196;DHT22;3639;51.308;5.624;2024-03-23T01:13:33;7.10;99.90
7196;DHT22;3639;51.308;5.624;2024-03-23T01:15:59;7.10;99.90
7196;DHT22;3639;51.308;5.624;2024-03-23T01:18:24;7.20;99.90
7196;DHT22;3639;51.308;5.624;2024-03-23T01:20:52;7.20;99.90
7196;DHT22;3639;51.308;5.624;2024-03-23T01:23:17;7.10;99.90
7196;DHT22;3639;51.308;5.624;2024-03-23T01:25:43;7.20;99.90
7196;DHT22;3639;51.308;5.624;2024-03-23T01:28:08;7.10;99.90
7196;DHT22;3639;51.308;5.624;2024-03-23T01:30:35;7.10;99.90
7196;DHT22;3639;51.308;5.624;2024-03-23T01:33:01;7.10;99.90
7196;DHT22;3639;51.308;5.624;2024-03-23T01:35:28;7.10;99.90
7196;DHT22;3639;51.308;5.624;2024-03-23T01:37:53;7.10;99.90
7196;DHT22;3639;51.308;5.624;2024-03-23T01:40:19;7.10;99.90
7196;DHT22;3639;51.308;5.624;2024-03-23T01:43:04;7.10;99.90
7196;DHT22;3639;51.308;5.624;2024-03-23T01:45:31;7.10;99.90
7196;DHT22;3639;51.308;5.624;2024-03-23T01:47:58;7.10;99.90
7196;DHT22;3639;51.308;5.624;2024-03-23T01:50:24;7.10;99.90
7196;DHT22;3639;51.308;5.624;2024-03-23T01:52:50;7.10;99.90
7196;DHT22;3639;51.308;5.624;2024-03-23T01:55:16;7.10;99.90
7196;DHT22;3639;51.308;5.624;2024-03-23T01:57:42;7.10;99.90
7196;DHT22;3639;51.308;5.624;2024-03-23T02:00:08;7.10;99.90
7196;DHT22;3639;51.308;5.624;2024-03-23T02:02:35;7.10;99.90
7196;DHT22;3639;51.308;5.624;2024-03-23T02:05:01;7.10;99.90
7196;DHT22;3639;51.308;5.624;2024-03-23T02:07:27;7.10;99.90
7196;DHT22;3639;51.308;5.624;2024-03-23T02:09:52;7.10;99.90
7196;DHT22;3639;51.308;5.624;2024-03-23T02:12:18;7.00;99.90
7196;DHT22;3639;51.308;5.624;2024-03-23T02:14:44;7.00;99.90
7196;DHT22;3639;51.308;5.624;2024-03-23T02:17:10;7.00;99.90
7196;DHT22;3639;51.308;5.624;2024-03-23T02:19:35;7.00;99.90
7196;DHT22;3639;51.308;5.624;2024-03-23T02:22:01;7.00;99.90
7196;DHT22;3639;51.308;5.624;2024-03-23T02:24:28;7.00;99.90
7196;DHT22;3639;51.308;5.624;2024-03-23T02:26:54;7.00;99.90
7196;DHT22;3639;51.308;5.624;2024-03-23T02:29:20;7.10;99.90
7196;DHT22;3639;51.308;5.624;2024-03-23T02:31:46;7.00;99.90
7196;DHT22;3639;51.308;5.624;2024-03-23T02:34:11;7.00;99.90
7196;DHT22;3639;51.308;5.624;2024-03-23T02:36:37;7.00;99.90
7196;DHT22;3639;51.308;5.624;2024-03-23T02:39:02;7.00;99.90
7196;DHT22;3639;51.308;5.624;2024-03-23T02:41:28;7.00;99.90
7196;DHT22;3639;51.308;5.624;2024-03-23T02:43:54;6.90;99.90
7196;DHT22;3639;51.308;5.624;2024-03-23T02:46:19;6.90;99.90
7196;DHT22;3639;51.308;5.624;2024-03-23T02:48:45;6.80;99.90
7196;DHT22;3639;51.308;5.624;2024-03-23T02:51:10;6.80;99.90
7196;DHT22;3639;51.308;5.624;2024-03-23T02:53:36;6.80;99.90
7196;DHT22;3639;51.308;5.624;2024-03-23T02:56:02;6.70;99.90
7196;DHT22;3639;51.308;5.624;2024-03-23T02:58:27;6.70;99.90
7196;DHT22;3639;51.308;5.624;2024-03-23T03:00:53;6.60;99.90
7196;DHT22;3639;51.308;5.624;2024-03-23T03:03:18;6.60;99.90
7196;DHT22;3639;51.308;5.624;2024-03-23T03:05:44;6.50;99.90
7196;DHT22;3639;51.308;5.624;2024-03-23T03:08:09;6.50;99.90
7196;DHT22;3639;51.308;5.624;2024-03-23T03:10:35;6.50;99.90
7196;DHT22;3639;51.308;5.624;2024-03-23T03:13:02;6.50;99.90
7196;DHT22;3639;51.308;5.624;2024-03-23T03:15:27;6.60;99.90
7196;DHT22;3639;51.308;5.624;2024-03-23T03:17:53;6.50;99.90
7196;DHT22;3639;51.308;5.624;2024-03-23T03:20:19;6.50;99.90
7196;DHT22;3639;51.308;5.624;2024-03-23T03:22:45;6.50;99.90
7196;DHT22;3639;51.308;5.624;2024-03-23T03:25:10;6.50;99.90
7196;DHT22;3639;51.308;5.624;2024-03-23T03:27:36;6.50;99.90
7196;DHT22;3639;51.308;5.624;2024-03-23T03:30:02;6.50;99.90
7196;DHT22;3639;51.308;5.624;2024-03-23T03:32:30;6.40;99.90
7196;DHT22;3639;51.308;5.624;2024-03-23T03:34:56;6.50;99.90
7196;DHT22;3639;51.308;5.624;2024-03-23T03:37:21;6.40;99.90
7196;DHT22;3639;51.308;5.624;2024-03-23T03:39:47;6.40;99.90
7196;DHT22;3639;51.308;5.624;2024-03-23T03:42:12;6.40;99.90
7196;DHT22;3639;51.308;5.624;2024-03-23T03:44:38;6.40;99.90
7196;DHT22;3639;51.308;5.624;2024-03-23T03:47:05;6.40;99.90
7196;DHT22;3639;51.308;5.624;2024-03-23T03:49:31;6.40;99.90
7196;DHT22;3639;51.308;5.624;2024-03-23T03:51:56;6.40;99.90
7196;DHT22;3639;51.308;5.624;2024-03-23T03:54:22;6.40;99.90
7196;DHT22;3639;51.308;5.624;2024-03-23T03:56:48;6.30;99.90
7196;DHT22;3639;51.308;5.624;2024-03-23T03:59:13;6.30;99.90
7196;DHT22;3639;51.308;5.624;2024-03-23T04:01:39;6.30;99.90
7196;DHT22;3639;51.308;5.624;2024-03-23T04:04:05;6.30;99.90
7196;DHT22;3639;51.308;5.624;2024-03-23T04:06:31;6.30;99.90
7196;DHT22;3639;51.308;5.624;2024-03-23T04:08:58;6.20;99.90
7196;DHT22;3639;51.308;5.624;2024-03-23T04:11:24;6.20;99.90
7196;DHT22;3639;51.308;5.624;2024-03-23T04:13:49;6.20;99.90
7196;DHT22;3639;51.308;5.624;2024-03-23T04:16:28;6.10;99.90
7196;DHT22;3639;51.308;5.624;2024-03-23T04:18:54;6.00;99.90
7196;DHT22;3639;51.308;5.624;2024-03-23T04:21:21;5.90;99.90
7196;DHT22;3639;51.308;5.624;2024-03-23T04:23:46;5.90;99.90
7196;DHT22;3639;51.308;5.624;2024-03-23T04:26:12;5.90;99.90
7196;DHT22;3639;51.308;5.624;2024-03-23T04:28:38;5.90;99.90
7196;DHT22;3639;51.308;5.624;2024-03-23T04:31:04;5.90;99.90
7196;DHT22;3639;51.308;5.624;2024-03-23T04:33:29;5.90;99.90
7196;DHT22;3639;51.308;5.624;2024-03-23T04:35:55;5.80;99.90
7196;DHT22;3639;51.308;5.624;2024-03-23T04:38:20;5.80;99.90
7196;DHT22;3639;51.308;5.624;2024-03-23T04:40:56;5.70;99.90
7196;DHT22;3639;51.308;5.624;2024-03-23T04:43:22;5.70;99.90
7196;DHT22;3639;51.308;5.624;2024-03-23T04:45:47;5.60;99.90
7196;DHT22;3639;51.308;5.624;2024-03-23T04:48:13;5.60;99.90
7196;DHT22;3639;51.308;5.624;2024-03-23T04:50:38;5.60;99.90
7196;DHT22;3639;51.308;5.624;2024-03-23T04:53:04;5.60;99.90
7196;DHT22;3639;51.308;5.624;2024-03-23T04:55:30;5.60;99.90
7196;DHT22;3639;51.308;5.624;2024-03-23T04:57:56;5.60;99.90
7196;DHT22;3639;51.308;5.624;2024-03-23T05:00:21;5.50;99.90
7196;DHT22;3639;51.308;5.624;2024-03-23T05:02:48;5.50;99.90
7196;DHT22;3639;51.308;5.624;2024-03-23T05:05:14;5.50;99.90
7196;DHT22;3639;51.308;5.624;2024-03-23T05:07:39;5.40;99.90
7196;DHT22;3639;51.308;5.624;2024-03-23T05:10:07;5.40;99.90
7196;DHT22;3639;51.308;5.624;2024-03-23T05:12:36;5.40;99.90
7196;DHT22;3639;51.308;5.624;2024-03-23T05:15:01;5.40;99.90
7196;DHT22;3639;51.308;5.624;2024-03-23T05:17:28;5.40;99.90
7196;DHT22;3639;51.308;5.624;2024-03-23T05:19:54;5.30;99.90
7196;DHT22;3639;51.308;5.624;2024-03-23T05:22:19;5.30;99.90
7196;DHT22;3639;51.308;5.624;2024-03-23T05:24:45;5.30;99.90
7196;DHT22;3639;51.308;5.624;2024-03-23T05:27:12;5.30;99.90
7196;DHT22;3639;51.308;5.624;2024-03-23T05:29:37;5.20;99.90
7196;DHT22;3639;51.308;5.624;2024-03-23T05:32:03;5.20;99.90
7196;DHT22;3639;51.308;5.624;2024-03-23T05:34:28;5.10;99.90
7196;DHT22;3639;51.308;5.624;2024-03-23T05:36:54;5.10;99.90
7196;DHT22;3639;51.308;5.624;2024-03-23T05:39:20;5.10;99.90
7196;DHT22;3639;51.308;5.624;2024-03-23T05:41:48;5.00;99.90
7196;DHT22;3639;51.308;5.624;2024-03-23T05:44:13;5.10;99.90
7196;DHT22;3639;51.308;5.624;2024-03-23T05:46:40;5.10;99.90
7196;DHT22;3639;51.308;5.624;2024-03-23T05:49:06;5.20;99.90
7196;DHT22;3639;51.308;5.624;2024-03-23T05:51:31;5.10;99.90
7196;DHT22;3639;51.308;5.624;2024-03-23T05:53:57;5.20;99.90
7196;DHT22;3639;51.308;5.624;2024-03-23T05:56:23;5.20;99.90
7196;DHT22;3639;51.308;5.624;2024-03-23T05:58:48;5.20;99.90
7196;DHT22;3639;51.308;5.624;2024-03-23T06:01:14;5.20;99.90
7196;DHT22;3639;51.308;5.624;2024-03-23T06:03:40;5.20;99.90
7196;DHT22;3639;51.308;5.624;2024-03-23T06:06:05;5.20;99.90
7196;DHT22;3639;51.308;5.624;2024-03-23T06:08:35;5.20;99.90
7196;DHT22;3639;51.308;5.624;2024-03-23T06:11:01;5.20;99.90
7196;DHT22;3639;51.308;5.624;2024-03-23T06:13:27;5.30;99.90
7196;DHT22;3639;51.308;5.624;2024-03-23T06:15:55;5.30;99.90
7196;DHT22;3639;51.308;5.624;2024-03-23T06:18:21;5.30;99.90
7196;DHT22;3639;51.308;5.624;2024-03-23T06:20:46;5.20;99.90
7196;DHT22;3639;51.308;5.624;2024-03-23T06:23:12;5.20;99.90
7196;DHT22;3639;51.308;5.624;2024-03-23T06:25:38;5.20;99.90
7196;DHT22;3639;51.308;5.624;2024-03-23T06:28:04;5.20;99.90
7196;DHT22;3639;51.308;5.624;2024-03-23T06:30:30;5.20;99.90
7196;DHT22;3639;51.308;5.624;2024-03-23T06:32:57;5.30;99.90
7196;DHT22;3639;51.308;5.624;2024-03-23T06:35:23;5.30;99.90
7196;DHT22;3639;51.308;5.624;2024-03-23T06:37:48;5.40;99.90
7196;DHT22;3639;51.308;5.624;2024-03-23T06:40:14;5.50;99.90
7196;DHT22;3639;51.308;5.624;2024-03-23T06:42:40;5.50;99.90
7196;DHT22;3639;51.308;5.624;2024-03-23T06:45:06;5.60;99.90
7196;DHT22;3639;51.308;5.624;2024-03-23T06:47:31;5.60;99.90
7196;DHT22;3639;51.308;5.624;2024-03-23T06:49:58;5.60;99.90
7196;DHT22;3639;51.308;5.624;2024-03-23T06:52:24;5.60;99.90
7196;DHT22;3639;51.308;5.624;2024-03-23T06:54:50;5.70;99.90
7196;DHT22;3639;51.308;5.624;2024-03-23T06:57:15;5.70;99.90
7196;DHT22;3639;51.308;5.624;2024-03-23T06:59:41;5.90;99.90
7196;DHT22;3639;51.308;5.624;2024-03-23T07:02:06;6.00;99.90
7196;DHT22;3639;51.308;5.624;2024-03-23T07:04:35;6.10;99.90
7196;DHT22;3639;51.308;5.624;2024-03-23T07:07:01;6.20;99.90
7196;DHT22;3639;51.308;5.624;2024-03-23T07:09:28;6.20;99.90
7196;DHT22;3639;51.308;5.624;2024-03-23T07:11:56;6.30;99.90
7196;DHT22;3639;51.308;5.624;2024-03-23T07:14:22;6.50;99.90
7196;DHT22;3639;51.308;5.624;2024-03-23T07:16:48;6.70;99.90
7196;DHT22;3639;51.308;5.624;2024-03-23T07:19:18;6.90;99.90
7196;DHT22;3639;51.308;5.624;2024-03-23T07:21:44;7.00;99.90
7196;DHT22;3639;51.308;5.624;2024-03-23T07:24:10;6.90;99.90
7196;DHT22;3639;51.308;5.624;2024-03-23T07:26:36;7.00;99.90
7196;DHT22;3639;51.308;5.624;2024-03-23T07:29:03;7.00;99.90
7196;DHT22;3639;51.308;5.624;2024-03-23T07:31:29;7.10;99.90
7196;DHT22;3639;51.308;5.624;2024-03-23T07:33:54;7.10;99.90
7196;DHT22;3639;51.308;5.624;2024-03-23T07:36:20;7.00;99.90
7196;DHT22;3639;51.308;5.624;2024-03-23T07:38:45;7.00;99.90
7196;DHT22;3639;51.308;5.624;2024-03-23T07:41:14;7.00;99.90
7196;DHT22;3639;51.308;5.624;2024-03-23T07:43:40;7.00;99.90
7196;DHT22;3639;51.308;5.624;2024-03-23T07:46:08;7.10;99.90
7196;DHT22;3639;51.308;5.624;2024-03-23T07:48:34;7.20;99.90
7196;DHT22;3639;51.308;5.624;2024-03-23T07:51:05;7.30;99.90
7196;DHT22;3639;51.308;5.624;2024-03-23T07:53:32;7.40;99.90
7196;DHT22;3639;51.308;5.624;2024-03-23T07:56:08;7.50;99.90
7196;DHT22;3639;51.308;5.624;2024-03-23T07:58:34;7.60;99.90
7196;DHT22;3639;51.308;5.624;2024-03-23T08:01:18;7.60;99.90
7196;DHT22;3639;51.308;5.624;2024-03-23T08:03:45;7.70;99.90
7196;DHT22;3639;51.308;5.624;2024-03-23T08:06:18;7.80;99.90
7196;DHT22;3639;51.308;5.624;2024-03-23T08:08:52;7.80;99.90
7196;DHT22;3639;51.308;5.624;2024-03-23T08:11:28;7.80;99.90
7196;DHT22;3639;51.308;5.624;2024-03-23T08:13:54;7.90;99.90
7196;DHT22;3639;51.308;5.624;2024-03-23T08:16:20;7.90;99.90
7196;DHT22;3639;51.308;5.624;2024-03-23T08:18:45;8.00;99.90
7196;DHT22;3639;51.308;5.624;2024-03-23T08:21:11;8.00;99.90
7196;DHT22;3639;51.308;5.624;2024-03-23T08:23:37;8.10;99.90
7196;DHT22;3639;51.308;5.624;2024-03-23T08:26:07;8.10;99.90
7196;DHT22;3639;51.308;5.624;2024-03-23T08:28:34;8.20;99.90
7196;DHT22;3639;51.308;5.624;2024-03-23T08:31:04;8.20;99.90
7196;DHT22;3639;51.308;5.624;2024-03-23T08:33:34;8.30;99.90
7196;DHT22;3639;51.308;5.624;2024-03-23T08:38:27;8.40;99.90
7196;DHT22;3639;51.308;5.624;2024-03-23T08:41:03;8.40;99.90
7196;DHT22;3639;51.308;5.624;2024-03-23T08:43:31;8.50;99.90
7196;DHT22;3639;51.308;5.624;2024-03-23T08:46:12;8.50;99.90
7196;DHT22;3639;51.308;5.624;2024-03-23T08:48:42;8.50;99.90
7196;DHT22;3639;51.308;5.624;2024-03-23T08:51:10;8.50;99.90
7196;DHT22;3639;51.308;5.624;2024-03-23T08:53:36;8.40;99.90
7196;DHT22;3639;51.308;5.624;2024-03-23T08:56:03;8.30;99.90
7196;DHT22;3639;51.308;5.624;2024-03-23T08:58:30;8.10;99.90
7196;DHT22;3639;51.308;5.624;2024-03-23T09:00:57;8.00;99.90
7196;DHT22;3639;51.308;5.624;2024-03-23T09:03:26;8.00;99.90
7196;DHT22;3639;51.308;5.624;2024-03-23T09:05:52;7.90;99.90
7196;DHT22;3639;51.308;5.624;2024-03-23T09:08:18;7.80;99.90
7196;DHT22;3639;51.308;5.624;2024-03-23T09:10:44;7.70;99.90
7196;DHT22;3639;51.308;5.624;2024-03-23T09:13:10;7.40;99.90
7196;DHT22;3639;51.308;5.624;2024-03-23T09:15:37;6.80;99.90
7196;DHT22;3639;51.308;5.624;2024-03-23T09:18:03;6.50;99.90
7196;DHT22;3639;51.308;5.624;2024-03-23T09:20:32;6.20;99.90
7196;DHT22;3639;51.308;5.624;2024-03-23T09:22:58;6.10;99.90
7196;DHT22;3639;51.308;5.624;2024-03-23T09:25:23;5.80;99.90
7196;DHT22;3639;51.308;5.624;2024-03-23T09:27:50;5.50;99.90
7196;DHT22;3639;51.308;5.624;2024-03-23T09:30:16;5.30;99.90
7196;DHT22;3639;51.308;5.624;2024-03-23T09:32:43;5.10;99.90
7196;DHT22;3639;51.308;5.624;2024-03-23T09:35:09;5.00;99.90
7196;DHT22;3639;51.308;5.624;2024-03-23T09:37:34;5.00;99.90
7196;DHT22;3639;51.308;5.624;2024-03-23T09:40:00;4.80;99.90
7196;DHT22;3639;51.308;5.624;2024-03-23T09:42:26;4.80;99.90
7196;DHT22;3639;51.308;5.624;2024-03-23T09:44:51;4.90;99.90
7196;DHT22;3639;51.308;5.624;2024-03-23T09:47:17;5.00;99.90
7196;DHT22;3639;51.308;5.624;2024-03-23T09:49:44;5.20;99.90
7196;DHT22;3639;51.308;5.624;2024-03-23T09:52:10;5.50;99.90
7196;DHT22;3639;51.308;5.624;2024-03-23T09:54:35;5.80;99.90
7196;DHT22;3639;51.308;5.624;2024-03-23T09:57:01;6.10;99.90
7196;DHT22;3639;51.308;5.624;2024-03-23T09:59:27;6.30;99.90
7196;DHT22;3639;51.308;5.624;2024-03-23T10:01:53;6.50;99.90
7196;DHT22;3639;51.308;5.624;2024-03-23T10:04:38;6.80;99.90
7196;DHT22;3639;51.308;5.624;2024-03-23T10:07:20;7.20;99.90
7196;DHT22;3639;51.308;5.624;2024-03-23T10:09:46;7.60;99.90
7196;DHT22;3639;51.308;5.624;2024-03-23T10:12:14;8.00;99.90
7196;DHT22;3639;51.308;5.624;2024-03-23T10:14:40;8.30;99.90
7196;DHT22;3639;51.308;5.624;2024-03-23T10:17:22;8.50;99.90
7196;DHT22;3639;51.308;5.624;2024-03-23T10:19:52;8.80;99.90
7196;DHT22;3639;51.308;5.624;2024-03-23T10:22:22;9.00;99.90
7196;DHT22;3639;51.308;5.624;2024-03-23T10:24:49;9.10;99.90
7196;DHT22;3639;51.308;5.624;2024-03-23T10:27:21;9.10;99.90
7196;DHT22;3639;51.308;5.624;2024-03-23T10:29:50;9.10;99.90
7196;DHT22;3639;51.308;5.624;2024-03-23T10:32:18;9.10;99.90
7196;DHT22;3639;51.308;5.624;2024-03-23T10:34:44;8.90;99.90
7196;DHT22;3639;51.308;5.624;2024-03-23T10:37:10;8.30;99.90
7196;DHT22;3639;51.308;5.624;2024-03-23T10:39:41;7.40;99.90
7196;DHT22;3639;51.308;5.624;2024-03-23T10:42:08;6.50;99.90
7196;DHT22;3639;51.308;5.624;2024-03-23T10:44:36;6.10;99.90
7196;DHT22;3639;51.308;5.624;2024-03-23T10:47:02;5.90;99.90
7196;DHT22;3639;51.308;5.624;2024-03-23T10:49:29;5.90;99.90
7196;DHT22;3639;51.308;5.624;2024-03-23T10:52:00;5.90;99.90
7196;DHT22;3639;51.308;5.624;2024-03-23T10:54:26;6.00;99.90
7196;DHT22;3639;51.308;5.624;2024-03-23T10:57:12;6.30;99.90
7196;DHT22;3639;51.308;5.624;2024-03-23T10:59:39;6.70;99.90
7196;DHT22;3639;51.308;5.624;2024-03-23T11:02:05;7.00;99.90
7196;DHT22;3639;51.308;5.624;2024-03-23T11:04:35;7.30;99.90
7196;DHT22;3639;51.308;5.624;2024-03-23T11:07:34;7.70;99.90
7196;DHT22;3639;51.308;5.624;2024-03-23T11:09:53;8.00;99.90
7196;DHT22;3639;51.308;5.624;2024-03-23T11:15:04;8.30;99.90
7196;DHT22;3639;51.308;5.624;2024-03-23T11:17:30;8.50;99.90
7196;DHT22;3639;51.308;5.624;2024-03-23T11:19:57;8.60;99.90
7196;DHT22;3639;51.308;5.624;2024-03-23T11:22:52;8.80;99.90
7196;DHT22;3639;51.308;5.624;2024-03-23T11:25:22;8.90;99.90
7196;DHT22;3639;51.308;5.624;2024-03-23T11:27:54;8.80;99.90
7196;DHT22;3639;51.308;5.624;2024-03-23T11:30:22;8.00;99.90
7196;DHT22;3639;51.308;5.624;2024-03-23T11:32:49;7.60;99.90
7196;DHT22;3639;51.308;5.624;2024-03-23T11:38:06;6.80;99.90
7196;DHT22;3639;51.308;5.624;2024-03-23T11:40:37;6.70;99.90
7196;DHT22;3639;51.308;5.624;2024-03-23T11:43:04;6.70;99.90
7196;DHT22;3639;51.308;5.624;2024-03-23T11:45:38;7.00;99.90
7196;DHT22;3639;51.308;5.624;2024-03-23T11:50:31;7.20;99.90
7196;DHT22;3639;51.308;5.624;2024-03-23T11:55:58;7.10;99.90
7196;DHT22;3639;51.308;5.624;2024-03-23T11:58:26;6.80;99.90
7196;DHT22;3639;51.308;5.624;2024-03-23T12:03:19;6.40;99.90
7196;DHT22;3639;51.308;5.624;2024-03-23T12:05:51;6.40;99.90
7196;DHT22;3639;51.308;5.624;2024-03-23T12:08:28;6.50;99.90
7196;DHT22;3639;51.308;5.624;2024-03-23T12:11:07;6.80;99.90
7196;DHT22;3639;51.308;5.624;2024-03-23T12:13:34;7.10;99.90
7196;DHT22;3639;51.308;5.624;2024-03-23T12:16:20;7.50;99.90
7196;DHT22;3639;51.308;5.624;2024-03-23T12:18:47;7.90;99.90
7196;DHT22;3639;51.308;5.624;2024-03-23T12:21:13;8.10;99.90
7196;DHT22;3639;51.308;5.624;2024-03-23T12:23:39;8.20;99.90
7196;DHT22;3639;51.308;5.624;2024-03-23T12:26:05;8.10;99.90
7196;DHT22;3639;51.308;5.624;2024-03-23T12:28:32;8.10;99.90
7196;DHT22;3639;51.308;5.624;2024-03-23T12:30:58;8.20;99.90
7196;DHT22;3639;51.308;5.624;2024-03-23T12:33:23;8.30;99.90
7196;DHT22;3639;51.308;5.624;2024-03-23T12:35:50;8.30;99.90
7196;DHT22;3639;51.308;5.624;2024-03-23T12:38:16;8.20;99.90
7196;DHT22;3639;51.308;5.624;2024-03-23T12:40:41;8.10;99.90
7196;DHT22;3639;51.308;5.624;2024-03-23T12:43:07;7.90;99.90
7196;DHT22;3639;51.308;5.624;2024-03-23T12:45:33;7.90;99.90
7196;DHT22;3639;51.308;5.624;2024-03-23T12:47:59;7.90;99.90
7196;DHT22;3639;51.308;5.624;2024-03-23T12:50:24;8.00;99.90
7196;DHT22;3639;51.308;5.624;2024-03-23T12:52:50;8.00;99.90
7196;DHT22;3639;51.308;5.624;2024-03-23T12:55:16;8.10;99.90
7196;DHT22;3639;51.308;5.624;2024-03-23T12:57:42;8.20;99.90
7196;DHT22;3639;51.308;5.624;2024-03-23T13:00:08;8.30;99.90
7196;DHT22;3639;51.308;5.624;2024-03-23T13:02:37;8.50;99.90
7196;DHT22;3639;51.308;5.624;2024-03-23T13:05:04;8.40;99.90
7196;DHT22;3639;51.308;5.624;2024-03-23T13:07:30;8.20;99.90
7196;DHT22;3639;51.308;5.624;2024-03-23T13:09:55;8.00;99.90
7196;DHT22;3639;51.308;5.624;2024-03-23T13:12:22;7.80;99.90
7196;DHT22;3639;51.308;5.624;2024-03-23T13:14:48;7.60;99.90
7196;DHT22;3639;51.308;5.624;2024-03-23T13:17:14;7.60;99.90
7196;DHT22;3639;51.308;5.624;2024-03-23T13:19:40;7.50;99.90
7196;DHT22;3639;51.308;5.624;2024-03-23T13:22:06;7.40;99.90
7196;DHT22;3639;51.308;5.624;2024-03-23T13:24:32;7.50;99.90
7196;DHT22;3639;51.308;5.624;2024-03-23T13:26:58;7.60;99.90
7196;DHT22;3639;51.308;5.624;2024-03-23T13:29:24;7.60;99.90
7196;DHT22;3639;51.308;5.624;2024-03-23T13:31:52;7.60;99.90
7196;DHT22;3639;51.308;5.624;2024-03-23T13:34:18;7.60;99.90
7196;DHT22;3639;51.308;5.624;2024-03-23T13:36:44;7.60;99.90
7196;DHT22;3639;51.308;5.624;2024-03-23T13:39:10;7.50;99.90
7196;DHT22;3639;51.308;5.624;2024-03-23T13:41:42;7.50;99.90
7196;DHT22;3639;51.308;5.624;2024-03-23T13:44:09;7.50;99.90
7196;DHT22;3639;51.308;5.624;2024-03-23T13:46:39;7.60;99.90
7196;DHT22;3639;51.308;5.624;2024-03-23T13:49:06;7.60;99.90
7196;DHT22;3639;51.308;5.624;2024-03-23T13:51:32;7.70;99.90
7196;DHT22;3639;51.308;5.624;2024-03-23T13:53:58;7.80;99.90
7196;DHT22;3639;51.308;5.624;2024-03-23T13:56:26;7.80;99.90
7196;DHT22;3639;51.308;5.624;2024-03-23T13:58:54;7.80;99.90
7196;DHT22;3639;51.308;5.624;2024-03-23T14:01:19;7.80;99.90
7196;DHT22;3639;51.308;5.624;2024-03-23T14:03:45;7.80;99.90
7196;DHT22;3639;51.308;5.624;2024-03-23T14:06:10;7.90;99.90
7196;DHT22;3639;51.308;5.624;2024-03-23T14:08:37;8.00;99.90
7196;DHT22;3639;51.308;5.624;2024-03-23T14:11:08;8.20;99.90
7196;DHT22;3639;51.308;5.624;2024-03-23T14:13:34;8.30;99.90
7196;DHT22;3639;51.308;5.624;2024-03-23T14:16:01;8.40;99.90
7196;DHT22;3639;51.308;5.624;2024-03-23T14:18:26;8.50;99.90
7196;DHT22;3639;51.308;5.624;2024-03-23T14:20:56;8.50;99.90
7196;DHT22;3639;51.308;5.624;2024-03-23T14:23:24;8.60;99.90
7196;DHT22;3639;51.308;5.624;2024-03-23T14:25:52;8.50;99.90
7196;DHT22;3639;51.308;5.624;2024-03-23T14:28:17;8.30;99.90
7196;DHT22;3639;51.308;5.624;2024-03-23T14:30:43;8.20;99.90
7196;DHT22;3639;51.308;5.624;2024-03-23T14:33:09;8.20;99.90
7196;DHT22;3639;51.308;5.624;2024-03-23T14:35:35;8.20;99.90
7196;DHT22;3639;51.308;5.624;2024-03-23T14:38:00;8.20;99.90
7196;DHT22;3639;51.308;5.624;2024-03-23T14:40:26;8.20;99.90
7196;DHT22;3639;51.308;5.624;2024-03-23T14:42:54;8.10;99.90
7196;DHT22;3639;51.308;5.624;2024-03-23T14:45:23;8.00;99.90
7196;DHT22;3639;51.308;5.624;2024-03-23T14:47:53;8.00;99.90
7196;DHT22;3639;51.308;5.624;2024-03-23T14:50:18;8.00;99.90
7196;DHT22;3639;51.308;5.624;2024-03-23T14:52:47;7.80;99.90
7196;DHT22;3639;51.308;5.624;2024-03-23T14:55:13;7.80;99.90
7196;DHT22;3639;51.308;5.624;2024-03-23T14:57:39;7.80;99.90
7196;DHT22;3639;51.308;5.624;2024-03-23T15:00:09;7.80;99.90
7196;DHT22;3639;51.308;5.624;2024-03-23T15:02:39;7.70;99.90
7196;DHT22;3639;51.308;5.624;2024-03-23T15:05:05;7.60;99.90
7196;DHT22;3639;51.308;5.624;2024-03-23T15:07:36;7.60;99.90
7196;DHT22;3639;51.308;5.624;2024-03-23T15:10:02;7.60;99.90
7196;DHT22;3639;51.308;5.624;2024-03-23T15:12:29;7.60;99.90
7196;DHT22;3639;51.308;5.624;2024-03-23T15:14:54;7.60;99.90
7196;DHT22;3639;51.308;5.624;2024-03-23T15:17:21;7.60;99.90
7196;DHT22;3639;51.308;5.624;2024-03-23T15:19:47;7.60;99.90
7196;DHT22;3639;51.308;5.624;2024-03-23T15:22:12;7.80;99.90
7196;DHT22;3639;51.308;5.624;2024-03-23T15:24:38;7.90;99.90
7196;DHT22;3639;51.308;5.624;2024-03-23T15:27:03;8.00;99.90
7196;DHT22;3639;51.308;5.624;2024-03-23T15:29:29;8.00;99.90
7196;DHT22;3639;51.308;5.624;2024-03-23T15:31:55;8.00;99.90
7196;DHT22;3639;51.308;5.624;2024-03-23T15:34:21;8.10;99.90
7196;DHT22;3639;51.308;5.624;2024-03-23T15:36:49;8.10;99.90
7196;DHT22;3639;51.308;5.624;2024-03-23T15:39:16;8.20;99.90
7196;DHT22;3639;51.308;5.624;2024-03-23T15:41:46;8.20;99.90
7196;DHT22;3639;51.308;5.624;2024-03-23T15:44:12;8.20;99.90
7196;DHT22;3639;51.308;5.624;2024-03-23T15:46:38;8.30;99.90
7196;DHT22;3639;51.308;5.624;2024-03-23T15:49:03;8.30;99.90
7196;DHT22;3639;51.308;5.624;2024-03-23T15:51:30;8.30;99.90
7196;DHT22;3639;51.308;5.624;2024-03-23T15:53:59;8.30;99.90
7196;DHT22;3639;51.308;5.624;2024-03-23T15:56:25;8.20;99.90
7196;DHT22;3639;51.308;5.624;2024-03-23T15:58:50;8.20;99.90
7196;DHT22;3639;51.308;5.624;2024-03-23T16:01:16;8.10;99.90
7196;DHT22;3639;51.308;5.624;2024-03-23T16:03:42;8.00;99.90
7196;DHT22;3639;51.308;5.624;2024-03-23T16:06:07;7.90;99.90
7196;DHT22;3639;51.308;5.624;2024-03-23T16:08:33;7.70;99.90
7196;DHT22;3639;51.308;5.624;2024-03-23T16:11:06;7.50;99.90
7196;DHT22;3639;51.308;5.624;2024-03-23T16:13:33;7.30;99.90
7196;DHT22;3639;51.308;5.624;2024-03-23T16:16:00;7.30;99.90
7196;DHT22;3639;51.308;5.624;2024-03-23T16:18:29;7.20;99.90
7196;DHT22;3639;51.308;5.624;2024-03-23T16:20:59;7.10;99.90
7196;DHT22;3639;51.308;5.624;2024-03-23T16:23:25;6.60;99.90
7196;DHT22;3639;51.308;5.624;2024-03-23T16:25:53;6.40;99.90
7196;DHT22;3639;51.308;5.624;2024-03-23T16:28:28;6.10;99.90
7196;DHT22;3639;51.308;5.624;2024-03-23T16:33:21;5.70;99.90
7196;DHT22;3639;51.308;5.624;2024-03-23T16:36:03;5.70;99.90
7196;DHT22;3639;51.308;5.624;2024-03-23T16:38:37;5.70;99.90
7196;DHT22;3639;51.308;5.624;2024-03-23T16:41:10;5.70;99.90
7196;DHT22;3639;51.308;5.624;2024-03-23T16:43:41;5.80;99.90
7196;DHT22;3639;51.308;5.624;2024-03-23T16:46:10;5.80;99.90
7196;DHT22;3639;51.308;5.624;2024-03-23T16:48:37;5.80;99.90
7196;DHT22;3639;51.308;5.624;2024-03-23T16:51:07;6.00;99.90
7196;DHT22;3639;51.308;5.624;2024-03-23T16:53:33;5.90;99.90
7196;DHT22;3639;51.308;5.624;2024-03-23T16:56:00;6.00;99.90
7196;DHT22;3639;51.308;5.624;2024-03-23T16:58:27;6.10;99.90
7196;DHT22;3639;51.308;5.624;2024-03-23T17:00:53;6.20;99.90
7196;DHT22;3639;51.308;5.624;2024-03-23T17:03:22;6.20;99.90
7196;DHT22;3639;51.308;5.624;2024-03-23T17:05:48;6.30;99.90
7196;DHT22;3639;51.308;5.624;2024-03-23T17:08:13;6.40;99.90
7196;DHT22;3639;51.308;5.624;2024-03-23T17:10:39;6.50;99.90
7196;DHT22;3639;51.308;5.624;2024-03-23T17:13:05;6.50;99.90
7196;DHT22;3639;51.308;5.624;2024-03-23T17:15:31;6.50;99.90
7196;DHT22;3639;51.308;5.624;2024-03-23T17:17:56;6.60;99.90
7196;DHT22;3639;51.308;5.624;2024-03-23T17:20:22;6.60;99.90
7196;DHT22;3639;51.308;5.624;2024-03-23T17:22:55;6.60;99.90
7196;DHT22;3639;51.308;5.624;2024-03-23T17:25:21;6.60;99.90
7196;DHT22;3639;51.308;5.624;2024-03-23T17:27:46;6.50;99.90